Time;durP1;ratioP1;P1;durP2;ratioP2;P2;SDS_P1;SDS_P2;PMS_P1;PMS_P2;Temp;Humidity;BMP_temperature;BMP_pressure;BME280_temperature;BME280_humidity;BME280_pressure;Samples;Min_cycle;Max_cycle;Signal;HPM_P1;HPM_P2
2022/12/15 00:41:01;;;;;;;;;58.00;48.25;;;;;2.85;53.07;99754.34;5030356;28;45478;-60
2022/12/15 00:43:31;;;;;;;;;59.50;48.75;;;;;2.84;52.96;99752.59;5018792;28;45553;-60
2022/12/15 00:48:41;;;;;;;;;56.00;47.25;;;;;2.87;53.42;99747.38;5037817;28;45444;-57
2022/12/15 00:51:07;;;;;;;;;64.00;52.25;;;;;2.87;53.62;99759.47;5037964;28;45335;-57
2022/12/15 01:21:01;;;;;;;;;60.25;50.25;;;;;2.75;54.39;99781.34;5035382;28;45385;-60
2022/12/15 01:23:27;;;;;;;;;59.25;46.00;;;;;2.75;53.87;99783.94;5021316;28;45438;-56
2022/12/15 01:25:53;;;;;;;;;56.00;47.25;;;;;2.71;53.69;99782.25;5019435;28;45377;-54
2022/12/15 01:28:19;;;;;;;;;60.75;50.00;;;;;2.72;53.64;99781.38;5024420;28;45536;-55
2022/12/15 01:30:45;;;;;;;;;59.00;49.75;;;;;2.70;53.69;99780.56;5034712;28;45505;-59
2022/12/15 01:33:11;;;;;;;;;66.25;54.00;;;;;2.72;53.73;99781.38;5037245;28;45483;-52
2022/12/15 01:35:37;;;;;;;;;63.75;51.00;;;;;2.63;53.69;99782.41;5035253;28;45556;-59
2022/12/15 01:38:02;;;;;;;;;67.00;54.25;;;;;2.65;53.74;99787.56;5035455;28;46122;-57
2022/12/15 01:40:45;;;;;;;;;64.25;50.00;;;;;2.65;54.64;99792.75;5033688;28;45513;-56
2022/12/15 01:43:23;;;;;;;;;63.00;51.25;;;;;2.61;54.42;99784.16;5029092;28;45450;-58
2022/12/15 01:45:54;;;;;;;;;60.75;51.25;;;;;2.63;54.13;99789.31;5032538;28;45349;-60
2022/12/15 01:48:27;;;;;;;;;59.00;49.00;;;;;2.63;54.24;99787.59;5027175;28;45765;-61
2022/12/15 01:51:23;;;;;;;;;60.50;49.75;;;;;2.59;54.24;99793.69;5035456;28;45506;-60
2022/12/15 01:54:11;;;;;;;;;58.00;47.50;;;;;2.63;54.31;99794.50;5031368;28;45561;-53
2022/12/15 01:56:43;;;;;;;;;60.50;51.00;;;;;2.54;54.80;99773.91;5030111;28;45566;-60
2022/12/15 01:59:14;;;;;;;;;63.50;53.00;;;;;2.60;54.46;99798.00;5031353;28;46408;-56
2022/12/15 02:01:39;;;;;;;;;58.50;49.50;;;;;2.52;54.19;99780.84;5031576;28;45500;-57
2022/12/15 02:04:05;;;;;;;;;59.00;49.50;;;;;2.56;54.74;99791.16;5032238;28;45383;-57
2022/12/15 02:06:31;;;;;;;;;59.25;46.75;;;;;2.57;55.09;99782.47;5036785;28;45590;-59
2022/12/15 02:08:58;;;;;;;;;62.00;50.25;;;;;2.59;55.13;99777.28;5036582;28;45427;-58
2022/12/15 02:12:15;;;;;;;;;64.50;50.00;;;;;2.57;54.29;99772.09;5030307;28;45523;-54
2022/12/15 02:14:52;;;;;;;;;62.00;50.25;;;;;2.52;54.84;99775.66;5008028;28;45683;-53
2022/12/15 02:17:31;;;;;;;;;61.75;51.75;;;;;2.45;54.77;99774.91;5029438;28;45398;-54
2022/12/15 02:19:59;;;;;;;;;57.75;47.50;;;;;2.43;54.67;99782.69;5029811;28;45580;-54
2022/12/15 02:22:48;;;;;;;;;60.50;50.75;;;;;2.43;54.45;99790.47;5029139;28;45503;-57
2022/12/15 02:25:44;;;;;;;;;60.25;51.00;;;;;2.40;54.09;99787.94;5026861;28;45555;-56
2022/12/15 02:28:15;;;;;;;;;60.50;49.75;;;;;2.37;54.66;99784.53;5026237;28;45577;-56
2022/12/15 02:34:04;;;;;;;;;62.75;50.75;;;;;2.36;55.55;99788.00;5016497;28;45449;-60
2022/12/15 02:36:42;;;;;;;;;59.75;49.50;;;;;2.35;55.00;99781.09;5027545;28;45446;-60
2022/12/15 02:39:11;;;;;;;;;61.00;50.25;;;;;2.40;55.25;99787.09;5015733;28;45469;-55
2022/12/15 02:41:47;;;;;;;;;63.50;53.25;;;;;2.38;55.03;99781.91;5034752;28;46631;-53
2022/12/15 02:44:28;;;;;;;;;58.00;49.25;;;;;2.37;55.46;99790.59;5036114;28;45369;-57
2022/12/15 02:47:33;;;;;;;;;64.25;51.75;;;;;2.36;54.85;99791.44;5028113;28;45376;-57
2022/12/15 02:50:36;;;;;;;;;63.75;52.50;;;;;2.29;55.10;99794.19;5016297;28;45619;-61
2022/12/15 02:53:04;;;;;;;;;65.00;52.00;;;;;2.24;55.03;99803.75;5032156;28;45586;-58
2022/12/15 02:56:00;;;;;;;;;60.75;51.50;;;;;2.20;55.20;99805.53;5036003;28;45282;-56
2022/12/15 02:58:38;;;;;;;;;63.00;50.00;;;;;2.15;55.38;99796.94;5032634;28;45359;-58
2022/12/15 03:01:17;;;;;;;;;64.50;51.00;;;;;2.17;55.02;99805.56;5035963;28;45572;-54
2022/12/15 03:03:45;;;;;;;;;64.00;51.00;;;;;2.16;55.66;99791.75;5029079;28;46573;-56
2022/12/15 03:06:10;;;;;;;;;57.50;47.75;;;;;2.16;55.70;99789.16;5028005;28;45515;-60
2022/12/15 03:08:35;;;;;;;;;68.25;54.00;;;;;2.17;55.57;99788.25;5035754;28;45515;-61
2022/12/15 03:11:01;;;;;;;;;66.00;53.00;;;;;2.22;55.04;99796.00;5035950;28;45367;-55
2022/12/15 03:13:26;;;;;;;;;56.00;46.00;;;;;2.19;55.51;99786.50;5035410;28;46043;-56
2022/12/15 03:15:53;;;;;;;;;59.75;48.50;;;;;2.19;55.25;99768.34;5031831;28;45411;-53
2022/12/15 03:18:19;;;;;;;;;57.75;49.75;;;;;2.19;55.55;99778.72;5035503;28;45499;-58
2022/12/15 03:20:44;;;;;;;;;62.25;51.00;;;;;2.21;54.98;99792.53;5035522;28;45542;-59
2022/12/15 03:23:09;;;;;;;;;60.00;51.50;;;;;2.18;55.35;99794.34;5034182;28;45535;-57
2022/12/15 03:25:35;;;;;;;;;56.00;48.25;;;;;2.15;55.35;99790.03;5035214;28;45482;-59
2022/12/15 03:28:00;;;;;;;;;64.00;52.75;;;;;2.11;55.44;99780.56;5035549;28;46012;-60
2022/12/15 03:30:25;;;;;;;;;63.00;51.75;;;;;2.04;55.17;99783.28;5035331;28;45647;-59
2022/12/15 03:32:51;;;;;;;;;60.25;50.50;;;;;2.05;55.36;99785.00;5030704;28;46356;-58
2022/12/15 03:35:16;;;;;;;;;61.75;52.00;;;;;2.01;55.95;99785.91;5024527;28;45451;-61
2022/12/15 03:37:41;;;;;;;;;65.00;52.25;;;;;1.99;55.48;99785.94;5021633;28;45501;-56
2022/12/15 03:40:09;;;;;;;;;63.50;51.75;;;;;2.02;55.74;99787.66;5023682;28;45479;-60
2022/12/15 03:42:49;;;;;;;;;59.25;50.50;;;;;1.98;55.33;99773.84;5027307;28;47159;-59
2022/12/15 03:45:20;;;;;;;;;63.50;51.25;;;;;2.04;55.86;99776.34;5015760;28;45490;-58
2022/12/15 03:47:47;;;;;;;;;61.75;51.50;;;;;2.07;55.89;99778.03;5026099;28;45429;-57
2022/12/15 03:50:15;;;;;;;;;58.00;49.75;;;;;2.03;56.16;99768.59;5026956;28;45464;-59
2022/12/15 03:52:41;;;;;;;;;66.25;53.75;;;;;1.96;55.65;99770.41;5033827;28;45458;-57
2022/12/15 03:55:07;;;;;;;;;64.75;51.75;;;;;2.02;56.45;99770.34;5034820;28;45488;-55
2022/12/15 03:57:32;;;;;;;;;66.50;54.25;;;;;1.99;55.30;99770.38;5034822;28;45475;-57
2022/12/15 03:59:58;;;;;;;;;63.50;53.00;;;;;1.96;55.61;99775.59;5034941;28;45487;-59
2022/12/15 04:02:24;;;;;;;;;67.50;55.00;;;;;1.91;56.29;99793.81;5034996;28;46294;-59
2022/12/15 04:04:49;;;;;;;;;67.50;50.75;;;;;1.85;56.43;99793.03;5034851;28;45440;-57
2022/12/15 04:07:14;;;;;;;;;54.00;45.50;;;;;1.92;56.31;99799.88;5030358;28;45563;-61
2022/12/15 04:09:40;;;;;;;;;65.50;53.00;;;;;1.96;56.81;99788.56;5035081;28;45444;-58
2022/12/15 04:12:06;;;;;;;;;63.50;52.75;;;;;1.93;56.17;99779.09;5034795;28;45748;-60
2022/12/15 04:14:32;;;;;;;;;68.50;53.75;;;;;1.99;56.02;99781.63;5034757;28;45464;-60
2022/12/15 04:16:57;;;;;;;;;67.75;55.00;;;;;1.92;56.16;99787.75;5034816;28;45381;-60
2022/12/15 04:22:07;;;;;;;;;66.00;53.25;;;;;1.94;56.37;99782.56;5021842;28;45933;-59
2022/12/15 05:32:52;;;;;;;;;64.75;53.75;;;;;2.04;55.83;99783.28;5037524;28;45389;-54
2022/12/15 05:35:18;;;;;;;;;63.25;51.50;;;;;2.06;55.96;99789.31;5037122;28;45646;-57
2022/12/15 05:37:43;;;;;;;;;60.25;49.00;;;;;1.98;55.51;99763.47;5036940;28;45591;-55
2022/12/15 05:40:09;;;;;;;;;63.00;53.25;;;;;2.06;55.82;99782.38;5037177;28;45440;-61
2022/12/15 05:42:34;;;;;;;;;62.50;52.50;;;;;2.04;55.77;99786.72;5036971;28;45304;-53
2022/12/15 05:45:00;;;;;;;;;60.75;50.50;;;;;2.04;55.53;99788.47;5037043;28;45416;-60
2022/12/15 05:47:25;;;;;;;;;59.00;50.00;;;;;1.97;56.41;99785.97;5036761;28;45464;-60
2022/12/15 05:49:50;;;;;;;;;66.00;53.00;;;;;2.01;55.21;99788.50;5024312;28;45441;-59
2022/12/15 05:52:16;;;;;;;;;67.00;53.50;;;;;1.96;56.00;99783.38;5035940;28;45464;-59
2022/12/15 05:54:41;;;;;;;;;64.25;53.25;;;;;2.00;55.35;99787.66;5031342;28;45539;-57
2022/12/15 05:57:07;;;;;;;;;62.25;50.75;;;;;2.02;55.85;99792.84;5028556;28;46058;-59
2022/12/15 05:59:32;;;;;;;;;65.25;51.25;;;;;2.03;56.14;99792.78;5025032;28;45327;-58
2022/12/15 06:01:57;;;;;;;;;61.50;51.75;;;;;2.06;56.08;99797.09;5026172;28;45360;-59
2022/12/15 06:04:23;;;;;;;;;59.75;46.25;;;;;2.03;55.61;99792.78;5029659;28;45577;-56
2022/12/15 06:06:48;;;;;;;;;62.00;51.25;;;;;2.07;55.41;99801.38;5023391;28;46357;-56
2022/12/15 06:09:14;;;;;;;;;56.50;43.25;;;;;2.11;55.55;99805.66;5036689;28;45421;-57
2022/12/15 06:11:39;;;;;;;;;58.50;50.75;;;;;2.04;55.08;99797.09;5036611;28;45469;-59
2022/12/15 06:14:05;;;;;;;;;65.25;51.75;;;;;2.10;56.24;99796.19;5036854;28;45623;-57
2022/12/15 06:16:30;;;;;;;;;64.25;53.50;;;;;2.06;55.51;99787.56;5030881;28;45591;-58
2022/12/15 06:18:59;;;;;;;;;67.25;52.50;;;;;2.08;55.39;99792.75;5036432;28;45397;-60
2022/12/15 06:21:34;;;;;;;;;67.00;52.25;;;;;2.05;55.85;99795.38;5035854;28;45513;-58
2022/12/15 06:24:01;;;;;;;;;67.50;52.75;;;;;2.05;55.42;99793.63;5030884;28;45374;-57
2022/12/15 06:26:29;;;;;;;;;63.00;50.50;;;;;2.06;55.47;99802.28;5030957;28;45496;-60
2022/12/15 06:28:57;;;;;;;;;62.00;53.00;;;;;2.03;55.36;99802.31;5034938;28;45554;-58
2022/12/15 06:31:24;;;;;;;;;63.00;52.75;;;;;1.99;54.62;99804.09;5030763;28;45507;-57
2022/12/15 06:33:54;;;;;;;;;59.50;50.50;;;;;1.98;55.66;99799.78;5036032;28;45404;-58
2022/12/15 06:36:22;;;;;;;;;63.75;51.25;;;;;1.94;55.86;99809.34;5043607;28;45875;-59
2022/12/15 06:38:48;;;;;;;;;66.50;52.75;;;;;1.95;55.35;99792.03;5027332;28;45483;-56
2022/12/15 06:41:16;;;;;;;;;63.25;53.00;;;;;1.96;55.66;99798.94;5036073;28;45332;-57
2022/12/15 06:43:42;;;;;;;;;63.25;52.25;;;;;1.98;55.40;99797.19;5036078;28;45428;-59
2022/12/15 06:46:08;;;;;;;;;60.50;49.75;;;;;1.99;55.29;99804.94;5028455;28;45388;-59
2022/12/15 06:48:34;;;;;;;;;66.25;50.75;;;;;1.96;55.66;99801.53;5034746;28;45643;-58
2022/12/15 06:51:06;;;;;;;;;65.25;52.75;;;;;1.95;55.29;99812.78;5035889;28;45519;-58
2022/12/15 06:53:36;;;;;;;;;65.25;50.00;;;;;1.89;55.78;99805.94;5051264;28;45444;-61
2022/12/15 06:56:04;;;;;;;;;66.50;55.25;;;;;1.82;55.39;99812.06;5034705;28;46584;-58
2022/12/15 06:58:29;;;;;;;;;62.00;51.00;;;;;1.76;55.75;99813.00;5035946;28;45441;-59
2022/12/15 07:00:56;;;;;;;;;61.75;50.00;;;;;1.72;55.41;99813.94;5023957;28;45377;-62
2022/12/15 07:03:21;;;;;;;;;62.25;51.75;;;;;1.71;56.10;99819.13;5021249;28;45573;-58
2022/12/15 07:05:47;;;;;;;;;65.25;53.00;;;;;1.69;56.27;99821.75;5021678;28;45605;-57
2022/12/15 07:08:14;;;;;;;;;67.50;54.75;;;;;1.64;56.12;99812.28;5035449;28;45382;-57
2022/12/15 07:10:43;;;;;;;;;68.25;53.75;;;;;1.64;55.63;99812.28;5035865;28;45427;-56
2022/12/15 07:13:12;;;;;;;;;63.75;51.25;;;;;1.62;56.70;99817.50;5034257;28;45512;-58
2022/12/15 07:15:39;;;;;;;;;65.00;54.00;;;;;1.64;56.43;99813.16;5022235;28;46533;-58
2022/12/15 07:18:06;;;;;;;;;68.00;56.67;;;;;1.60;56.09;99818.41;5028862;28;45541;-58
2022/12/15 07:20:32;;;;;;;;;63.75;53.00;;;;;1.62;56.23;99827.03;5033556;28;45448;-57
2022/12/15 07:22:57;;;;;;;;;66.50;54.00;;;;;1.61;56.63;99830.47;5022282;28;45420;-59
2022/12/15 07:25:23;;;;;;;;;66.50;54.50;;;;;1.61;56.55;99835.66;5015823;28;47128;-58
2022/12/15 07:27:48;;;;;;;;;62.25;51.50;;;;;1.59;57.04;99840.03;5025587;28;45460;-57
2022/12/15 07:30:15;;;;;;;;;63.25;52.25;;;;;1.64;56.83;99852.06;5030235;28;45515;-55
2022/12/15 07:32:41;;;;;;;;;67.00;54.25;;;;;1.67;56.92;99862.38;5033606;28;45611;-58
2022/12/15 07:35:07;;;;;;;;;68.75;53.75;;;;;1.70;56.83;99871.84;5035001;28;45757;-58
2022/12/15 07:37:33;;;;;;;;;62.50;53.50;;;;;1.64;56.49;99856.34;5021049;28;45486;-58
2022/12/15 07:39:58;;;;;;;;;68.00;53.75;;;;;1.64;55.83;99858.94;5026694;28;45551;-57
2022/12/15 07:42:23;;;;;;;;;64.25;52.50;;;;;1.62;56.83;99864.16;5031319;28;45373;-60
2022/12/15 07:44:49;;;;;;;;;68.00;51.75;;;;;1.61;56.15;99871.94;5027148;28;45514;-59
2022/12/15 07:47:14;;;;;;;;;66.75;54.25;;;;;1.56;57.04;99869.41;5035554;28;45518;-63
2022/12/15 07:49:39;;;;;;;;;69.75;54.50;;;;;1.57;56.85;99857.31;5020997;28;45534;-63
2022/12/15 07:52:05;;;;;;;;;70.50;57.00;;;;;1.63;56.40;99860.69;5021062;28;45621;-63
2022/12/15 07:54:30;;;;;;;;;60.50;51.50;;;;;1.57;56.84;99863.34;5032092;28;45519;-63
2022/12/15 07:56:55;;;;;;;;;68.00;55.75;;;;;1.65;56.30;99871.91;5033890;28;45494;-58
2022/12/15 07:59:22;;;;;;;;;68.00;53.50;;;;;1.62;56.91;99858.13;5029444;28;45585;-61
2022/12/15 08:01:48;;;;;;;;;64.50;50.50;;;;;1.65;57.17;99869.31;5023672;28;45476;-62
2022/12/15 08:04:13;;;;;;;;;68.00;53.75;;;;;1.69;55.95;99864.94;5028542;28;45467;-61
2022/12/15 08:06:39;;;;;;;;;64.25;52.00;;;;;1.64;56.13;99867.59;5034937;28;45328;-61
2022/12/15 08:09:04;;;;;;;;;62.75;51.25;;;;;1.61;56.29;99877.97;5033339;28;45463;-59
2022/12/15 08:11:33;;;;;;;;;59.50;46.25;;;;;1.65;56.07;99897.81;5033840;28;45424;-63
2022/12/15 08:13:59;;;;;;;;;65.50;54.50;;;;;1.70;55.95;99908.16;5034589;28;45659;-63
2022/12/15 08:16:25;;;;;;;;;67.00;52.75;;;;;1.60;55.87;99898.75;5033481;28;45436;-64
2022/12/15 08:18:50;;;;;;;;;67.25;54.00;;;;;1.57;56.23;99917.78;5025878;28;45558;-59
2022/12/15 08:21:16;;;;;;;;;63.50;50.00;;;;;1.51;55.81;99905.72;5030190;28;45613;-57
2022/12/15 08:23:41;;;;;;;;;71.00;55.25;;;;;1.54;55.82;99908.28;5034638;28;45552;-58
2022/12/15 08:26:10;;;;;;;;;69.00;57.00;;;;;1.62;56.19;99915.13;5028634;28;45496;-60
2022/12/15 08:28:36;;;;;;;;;71.50;55.00;;;;;1.60;56.35;99907.38;5033065;28;45497;-60
2022/12/15 08:31:13;;;;;;;;;66.00;54.25;;;;;1.65;55.60;99915.09;5035795;28;45578;-61
2022/12/15 08:33:39;;;;;;;;;67.50;55.75;;;;;1.70;56.10;99921.09;5036064;28;46285;-59
2022/12/15 08:36:08;;;;;;;;;73.00;55.00;;;;;1.76;55.85;99923.63;5029668;28;45643;-60
2022/12/15 08:38:35;;;;;;;;;69.50;54.25;;;;;1.71;55.50;99918.47;5018348;28;45519;-58
2022/12/15 08:41:13;;;;;;;;;70.75;55.75;;;;;1.79;55.95;99918.41;5036816;28;45408;-59
2022/12/15 08:43:39;;;;;;;;;69.50;53.25;;;;;1.79;55.66;99914.97;5037895;28;45701;-58
2022/12/15 08:46:06;;;;;;;;;64.75;54.00;;;;;1.80;55.54;99914.97;5025277;28;45642;-62
2022/12/15 08:48:32;;;;;;;;;74.00;57.50;;;;;1.74;55.46;99904.63;5029494;28;45499;-67
2022/12/15 08:50:58;;;;;;;;;64.25;52.75;;;;;1.71;56.01;99904.66;5032742;28;45602;-64
2022/12/15 08:53:25;;;;;;;;;68.25;56.00;;;;;1.75;55.77;99915.00;5026892;28;45473;-64
2022/12/15 08:55:50;;;;;;;;;65.25;54.50;;;;;1.79;56.07;99908.03;5037694;28;45369;-59
2022/12/15 08:58:16;;;;;;;;;67.50;54.25;;;;;1.83;55.84;99912.31;5030055;28;45496;-65
2022/12/15 09:00:41;;;;;;;;;65.25;53.00;;;;;1.83;55.70;99898.47;5038082;28;45377;-64
2022/12/15 09:03:06;;;;;;;;;65.75;55.00;;;;;1.91;55.58;99905.31;5026254;28;46385;-66
2022/12/15 09:05:35;;;;;;;;;66.50;55.50;;;;;1.84;54.99;99895.03;5037728;28;45371;-64
2022/12/15 09:08:01;;;;;;;;;66.00;54.25;;;;;1.87;54.98;99906.22;5037815;28;45538;-64
2022/12/15 09:10:26;;;;;;;;;56.00;46.00;;;;;1.85;55.01;99904.50;5038218;28;45531;-64
2022/12/15 09:12:52;;;;;;;;;67.00;53.75;;;;;1.77;54.88;99900.28;5036809;28;45628;-64
2022/12/15 09:15:18;;;;;;;;;66.00;55.25;;;;;1.86;55.49;99911.44;5035180;28;45555;-64
2022/12/15 09:17:44;;;;;;;;;68.50;55.00;;;;;1.83;54.27;99908.84;5017538;28;45534;-63
2022/12/15 09:20:10;;;;;;;;;67.50;55.75;;;;;1.83;55.16;99909.72;5035361;28;45582;-64
2022/12/15 09:22:35;;;;;;;;;65.33;51.33;;;;;1.84;54.78;99916.63;5034362;28;45379;-59
2022/12/15 09:25:02;;;;;;;;;72.00;56.00;;;;;1.87;55.05;99921.78;5036647;28;45412;-63
2022/12/15 09:27:29;;;;;;;;;68.25;55.50;;;;;1.88;55.42;99909.66;5019607;28;45408;-61
2022/12/15 09:29:55;;;;;;;;;26.50;21.50;;;;;1.88;54.89;99913.13;5030773;28;45462;-64
2022/12/15 09:32:20;;;;;;;;;68.00;55.25;;;;;1.99;55.30;99926.84;5019883;28;46469;-64
2022/12/15 09:34:45;;;;;;;;;69.75;57.25;;;;;2.05;54.82;99938.88;5027171;28;45458;-60
2022/12/15 09:37:12;;;;;;;;;68.00;55.25;;;;;2.03;54.19;99919.88;5023320;28;45427;-60
2022/12/15 09:39:37;;;;;;;;;68.75;56.00;;;;;2.11;54.42;99925.81;5035766;28;45684;-68
2022/12/15 09:42:03;;;;;;;;;68.00;55.00;;;;;2.08;54.01;99925.88;5036061;28;45505;-60
2022/12/15 09:44:31;;;;;;;;;67.00;55.25;;;;;2.15;54.18;99935.31;5028062;28;45618;-58
2022/12/15 09:47:11;;;;;;;;;65.50;54.75;;;;;2.14;53.91;99932.72;5022868;28;45453;-59
2022/12/15 09:50:01;;;;;;;;;66.75;52.00;;;;;2.18;54.43;99950.81;5036616;28;45492;-58
2022/12/15 09:52:45;;;;;;;;;71.75;55.00;;;;;2.20;54.10;99951.69;5035611;28;46205;-59
2022/12/15 09:55:23;;;;;;;;;70.50;58.75;;;;;2.20;54.24;99955.97;5036986;28;45337;-58
2022/12/15 09:58:02;;;;;;;;;65.25;54.50;;;;;2.26;53.55;99955.03;5035213;28;45488;-57
2022/12/15 10:00:39;;;;;;;;;62.75;51.50;;;;;2.19;53.84;99946.50;5037243;28;45511;-55
2022/12/15 10:03:20;;;;;;;;;69.25;57.00;;;;;2.19;54.05;99959.47;5035445;28;45594;-57
2022/12/15 10:06:12;;;;;;;;;70.00;55.75;;;;;2.25;54.49;99953.34;5033953;28;45491;-57
2022/12/15 10:08:43;;;;;;;;;72.00;56.75;;;;;2.28;54.33;99943.78;5025339;28;45473;-57
2022/12/15 10:11:17;;;;;;;;;67.50;56.25;;;;;2.35;54.32;99947.16;5036735;28;45488;-58
2022/12/15 10:13:57;;;;;;;;;66.50;55.75;;;;;2.36;53.86;99941.09;5028548;28;46226;-56
2022/12/15 10:16:41;;;;;;;;;64.00;51.00;;;;;2.34;53.84;99943.72;5019696;28;45473;-54
2022/12/15 10:19:25;;;;;;;;;71.00;56.00;;;;;2.36;53.98;99936.75;5037115;28;45318;-57
2022/12/15 10:21:51;;;;;;;;;66.00;54.75;;;;;2.40;54.04;99943.63;5022630;28;45371;-57
2022/12/15 10:24:19;;;;;;;;;67.50;56.25;;;;;2.41;53.89;99937.56;5027137;28;46560;-54
2022/12/15 10:26:57;;;;;;;;;67.00;55.50;;;;;2.49;53.59;99941.81;5034103;28;45395;-58
2022/12/15 10:29:43;;;;;;;;;65.75;54.25;;;;;2.52;54.39;99933.97;5036877;28;45543;-58
2022/12/15 10:32:17;;;;;;;;;63.00;52.75;;;;;2.37;54.16;99903.91;5022905;28;45638;-57
2022/12/15 10:34:43;;;;;;;;;70.25;54.00;;;;;2.57;53.80;99929.56;5034182;28;47986;-56
2022/12/15 10:37:18;;;;;;;;;69.75;54.75;;;;;2.64;53.75;99926.88;5021467;28;45459;-57
2022/12/15 10:39:46;;;;;;;;;70.75;57.50;;;;;2.69;53.98;99919.03;5024927;28;45574;-57
2022/12/15 10:42:25;;;;;;;;;67.50;54.25;;;;;2.72;53.91;99905.16;5036588;28;45557;-57
2022/12/15 10:44:56;;;;;;;;;65.00;54.50;;;;;2.82;54.06;99898.91;5025858;28;47258;-55
2022/12/15 10:47:23;;;;;;;;;65.25;54.25;;;;;2.93;52.80;99896.16;5030888;28;45294;-60
2022/12/15 10:49:49;;;;;;;;;70.50;53.50;;;;;2.94;52.90;99880.56;5027333;28;45784;-59
2022/12/15 10:52:36;;;;;;;;;63.75;54.00;;;;;3.02;52.60;99872.66;5036091;28;45722;-59
2022/12/15 10:55:21;;;;;;;;;66.25;53.00;;;;;3.01;52.07;99857.94;5035745;28;45662;-59
2022/12/15 10:58:01;;;;;;;;;67.75;53.50;;;;;3.08;52.33;99869.94;5035530;28;45424;-59
2022/12/15 11:00:29;;;;;;;;;63.00;51.75;;;;;2.98;52.55;99858.88;5035901;28;45457;-60
2022/12/15 11:02:56;;;;;;;;;60.75;47.50;;;;;3.03;52.70;99863.97;5035602;28;45476;-60
2022/12/15 11:05:22;;;;;;;;;69.00;55.50;;;;;2.99;52.69;99854.53;5035793;28;45742;-60
2022/12/15 11:08:12;;;;;;;;;70.00;54.00;;;;;2.95;52.99;99848.50;5035359;28;45440;-60
2022/12/15 11:13:36;;;;;;;;;68.75;53.00;;;;;2.95;53.48;99839.88;5028981;28;45527;-60
2022/12/15 11:16:15;;;;;;;;;64.75;54.00;;;;;2.95;52.33;99843.31;5028144;28;46288;-60
2022/12/15 11:18:52;;;;;;;;;69.75;55.25;;;;;2.92;53.41;99837.31;5022231;28;45488;-60
2022/12/15 11:21:30;;;;;;;;;62.75;46.50;;;;;2.88;53.01;99845.16;5033872;28;45425;-60
2022/12/15 11:24:15;;;;;;;;;69.25;57.00;;;;;2.76;52.60;99827.19;5035439;28;45512;-59
2022/12/15 11:27:12;;;;;;;;;67.75;57.00;;;;;2.77;53.24;99836.69;5033958;28;45619;-59
2022/12/15 11:30:00;;;;;;;;;71.50;55.50;;;;;2.76;53.96;99828.91;5032951;28;45471;-60
2022/12/15 11:32:31;;;;;;;;;66.25;53.50;;;;;2.76;53.08;99824.56;5021682;28;45444;-64
2022/12/15 11:34:57;;;;;;;;;64.50;53.00;;;;;2.71;53.31;99807.34;5019986;28;45510;-57
2022/12/15 11:37:36;;;;;;;;;68.00;55.00;;;;;2.77;53.25;99809.88;5023322;28;45441;-60
2022/12/15 11:40:31;;;;;;;;;69.50;53.50;;;;;2.81;52.29;99808.94;5030914;28;45498;-59
2022/12/15 11:43:00;;;;;;;;;64.00;52.00;;;;;2.83;52.24;99809.78;5017650;28;45535;-60
2022/12/15 11:45:41;;;;;;;;;68.00;52.50;;;;;2.82;52.51;99811.53;5029109;28;45509;-61
2022/12/15 11:48:16;;;;;;;;;65.75;52.75;;;;;2.84;52.62;99798.50;5023495;28;45699;-61
2022/12/15 11:50:51;;;;;;;;;91.33;70.33;;;;;2.86;52.25;99792.38;5023602;28;45408;-64
2022/12/15 11:53:22;;;;;;;;;103.67;86.33;;;;;2.94;52.43;99794.00;5019412;28;45393;-64
2022/12/15 11:56:22;;;;;;;;;64.75;52.25;;;;;2.93;52.02;99793.16;5027366;28;45494;-65
2022/12/15 11:59:12;;;;;;;;;61.50;50.50;;;;;2.91;52.10;99784.53;5033493;28;46537;-67
2022/12/15 12:01:49;;;;;;;;;64.25;50.50;;;;;2.91;52.24;99779.34;5018334;28;45469;-58
2022/12/15 12:04:23;;;;;;;;;62.00;51.75;;;;;2.95;52.34;99783.56;5026882;28;45471;-57
2022/12/15 12:07:06;;;;;;;;;60.50;50.50;;;;;2.96;52.70;99776.66;5015707;28;45439;-60
2022/12/15 12:09:35;;;;;;;;;63.25;51.50;;;;;2.93;52.10;99774.09;5021773;28;46701;-57
2022/12/15 12:12:29;;;;;;;;;61.25;50.00;;;;;2.93;51.93;99774.09;5022726;28;45426;-54
2022/12/15 12:15:12;;;;;;;;;64.00;50.00;;;;;2.99;52.55;99769.66;5034761;28;45445;-58
2022/12/15 12:17:46;;;;;;;;;59.25;49.75;;;;;3.02;52.06;99759.22;5020414;28;45585;-54
2022/12/15 12:20:26;;;;;;;;;62.00;48.50;;;;;3.10;52.34;99762.53;5026743;28;46177;-57
2022/12/15 12:23:01;;;;;;;;;62.00;49.50;;;;;3.13;52.32;99755.56;5019528;28;45337;-58
2022/12/15 12:25:29;;;;;;;;;62.75;50.00;;;;;3.12;51.74;99743.44;5025049;28;45458;-57
2022/12/15 12:28:01;;;;;;;;;55.00;45.75;;;;;3.18;51.91;99751.16;5034973;28;45467;-58
2022/12/15 12:30:33;;;;;;;;;63.50;47.00;;;;;3.21;51.41;99756.28;5033367;28;46324;-55
2022/12/15 12:33:23;;;;;;;;;52.25;47.25;;;;;3.24;51.57;99751.88;5024177;28;45444;-57
2022/12/15 12:35:54;;;;;;;;;57.50;46.50;;;;;3.25;50.96;99743.22;5017452;28;45487;-58
2022/12/15 12:38:29;;;;;;;;;51.00;44.50;;;;;3.28;50.66;99747.50;5024243;28;45380;-55
2022/12/15 12:41:04;;;;;;;;;62.00;50.75;;;;;3.24;50.72;99741.47;5028239;28;45550;-55
2022/12/15 12:43:34;;;;;;;;;60.00;50.75;;;;;3.27;50.16;99736.22;5018532;28;45461;-58
2022/12/15 12:46:24;;;;;;;;;56.50;45.75;;;;;3.25;50.27;99727.63;5032755;28;45396;-57
2022/12/15 12:49:06;;;;;;;;;50.25;42.00;;;;;3.29;50.40;99733.59;5021980;28;45424;-56
2022/12/15 12:51:47;;;;;;;;;60.25;50.00;;;;;3.30;48.70;99732.72;5021512;28;46540;-53
2022/12/15 12:54:31;;;;;;;;;47.25;43.00;;;;;3.32;50.17;99734.38;5020159;28;45505;-57
2022/12/15 12:56:56;;;;;;;;;55.00;46.75;;;;;3.33;49.38;99732.66;5034230;28;45490;-57
2022/12/15 12:59:27;;;;;;;;;61.75;48.00;;;;;3.37;50.40;99736.91;5020092;28;45378;-58
2022/12/15 13:02:16;;;;;;;;;55.25;47.75;;;;;3.35;50.36;99732.63;5028188;28;46453;-58
2022/12/15 13:04:49;;;;;;;;;51.75;40.00;;;;;3.33;49.60;99727.44;5006762;28;45408;-57
2022/12/15 13:07:30;;;;;;;;;57.50;49.25;;;;;3.27;49.18;99725.81;5034489;28;45451;-58
2022/12/15 13:10:07;;;;;;;;;51.25;45.50;;;;;3.26;49.87;99723.28;5029429;28;45527;-55
2022/12/15 13:12:46;;;;;;;;;48.00;43.00;;;;;3.13;49.29;99704.47;5026732;28;45634;-55
2022/12/15 13:15:34;;;;;;;;;54.50;46.75;;;;;3.27;50.06;99707.63;5020372;28;45402;-56
2022/12/15 13:18:15;;;;;;;;;51.25;43.00;;;;;3.29;50.13;99712.81;5037514;28;45372;-56
2022/12/15 13:20:41;;;;;;;;;63.00;48.50;;;;;3.28;50.21;99727.56;5037468;28;45387;-54
2022/12/15 13:23:35;;;;;;;;;53.25;44.50;;;;;3.26;50.93;99731.94;5037139;28;46672;-58
2022/12/15 13:26:00;;;;;;;;;57.00;47.00;;;;;3.24;51.17;99725.91;5026546;28;45367;-56
2022/12/15 13:28:34;;;;;;;;;50.25;45.25;;;;;3.23;50.32;99724.19;5034632;28;45468;-57
2022/12/15 13:31:15;;;;;;;;;51.00;44.50;;;;;3.21;50.65;99722.50;5032332;28;45500;-56
2022/12/15 13:33:49;;;;;;;;;60.50;45.75;;;;;3.19;50.66;99725.13;5031096;28;45446;-57
2022/12/15 13:36:43;;;;;;;;;55.25;45.75;;;;;3.20;50.92;99718.22;5021213;28;45480;-58
2022/12/15 13:39:11;;;;;;;;;62.25;51.25;;;;;3.20;50.91;99723.41;5034887;28;45495;-57
2022/12/15 13:42:00;;;;;;;;;52.25;45.00;;;;;3.19;50.94;99712.13;5036240;28;45402;-56
2022/12/15 13:44:50;;;;;;;;;57.00;47.50;;;;;3.17;51.18;99706.13;5036785;28;46745;-57
2022/12/15 13:47:15;;;;;;;;;58.00;47.00;;;;;3.18;51.37;99713.03;5023539;28;45547;-55
2022/12/15 13:49:46;;;;;;;;;49.75;43.75;;;;;3.17;51.45;99702.66;5031095;28;45412;-60
2022/12/15 13:52:26;;;;;;;;;54.00;44.25;;;;;3.18;51.43;99706.97;5017303;28;45515;-59
2022/12/15 13:54:55;;;;;;;;;51.00;43.25;;;;;3.20;51.83;99706.06;5035686;28;46334;-58
2022/12/15 13:57:23;;;;;;;;;46.75;42.00;;;;;3.19;50.91;99709.53;5037067;28;45444;-59
2022/12/15 13:59:59;;;;;;;;;50.25;43.75;;;;;3.18;51.01;99700.03;5037136;28;45355;-58
2022/12/15 14:02:30;;;;;;;;;50.00;42.50;;;;;3.22;50.99;99703.41;5036611;28;45507;-57
2022/12/15 14:05:13;;;;;;;;;51.75;42.75;;;;;3.22;50.81;99701.69;5036779;28;45423;-58
2022/12/15 14:07:46;;;;;;;;;45.75;42.00;;;;;3.24;50.99;99710.31;5022901;28;45527;-58
2022/12/15 14:10:20;;;;;;;;;51.75;43.50;;;;;3.22;50.44;99703.41;5024154;28;45512;-58
2022/12/15 14:12:48;;;;;;;;;41.75;38.00;;;;;3.24;50.28;99707.69;5036702;28;45554;-57